createdAt,value
2023-05-20T00:00:21.870Z,961.60
2023-05-20T00:00:51.852Z,961.70
2023-05-20T00:01:22.802Z,961.70
2023-05-20T00:01:53.883Z,961.70
2023-05-20T00:02:24.963Z,961.70
2023-05-20T00:02:55.985Z,961.70
2023-05-20T00:03:27.283Z,961.70
2023-05-20T00:03:58.197Z,961.80
2023-05-20T00:04:29.139Z,961.80
2023-05-20T00:05:00.524Z,961.70
2023-05-20T00:05:31.017Z,961.70
2023-05-20T00:06:01.859Z,961.60
2023-05-20T00:06:32.893Z,961.60
2023-05-20T00:07:04.294Z,961.70
2023-05-20T00:07:35.614Z,961.60
2023-05-20T00:08:05.937Z,961.60
2023-05-20T00:08:37.001Z,961.80
2023-05-20T00:09:08.174Z,961.80
2023-05-20T00:09:39.531Z,961.70
2023-05-20T00:10:10.650Z,961.70
2023-05-20T00:10:43.229Z,961.50
2023-05-20T00:11:11.925Z,961.50
2023-05-20T00:11:43.214Z,961.50
2023-05-20T00:12:13.950Z,961.50
2023-05-20T00:12:46.138Z,961.70
2023-05-20T00:13:16.149Z,961.70
2023-05-20T00:13:46.924Z,961.60
2023-05-20T00:14:17.995Z,961.60
2023-05-20T00:14:48.999Z,961.50
2023-05-20T00:15:20.788Z,961.50
2023-05-20T00:15:50.872Z,961.50
2023-05-20T00:16:21.881Z,961.50
2023-05-20T00:16:53.125Z,961.39
2023-05-20T00:17:23.897Z,961.39
2023-05-20T00:17:55.272Z,961.39
2023-05-20T00:18:25.936Z,961.39
2023-05-20T00:18:57.478Z,961.70
2023-05-20T00:19:28.014Z,961.70
2023-05-20T00:19:59.159Z,961.50
2023-05-20T00:20:30.381Z,961.50
2023-05-20T00:21:00.902Z,961.60
2023-05-20T00:21:32.009Z,961.60
2023-05-20T00:22:03.056Z,961.39
2023-05-20T00:22:34.019Z,961.60
2023-05-20T00:23:04.984Z,961.60
2023-05-20T00:23:35.932Z,961.60
2023-05-20T00:24:07.043Z,961.60
2023-05-20T00:24:38.158Z,961.70
2023-05-20T00:25:09.109Z,961.70
2023-05-20T00:25:40.062Z,961.60
2023-05-20T00:26:11.189Z,961.60
2023-05-20T00:26:41.948Z,961.80
2023-05-20T00:27:12.884Z,961.80
2023-05-20T00:27:43.955Z,961.70
2023-05-20T00:28:15.270Z,961.70
2023-05-20T00:28:45.956Z,961.60
2023-05-20T00:29:16.960Z,961.60
2023-05-20T00:29:48.012Z,961.60
2023-05-20T00:30:19.684Z,961.60
2023-05-20T00:30:49.899Z,961.29
2023-05-20T00:31:20.936Z,961.29
2023-05-20T00:31:51.982Z,961.50
2023-05-20T00:32:23.231Z,961.50
2023-05-20T00:32:54.142Z,961.29
2023-05-20T00:33:25.539Z,961.29
2023-05-20T00:33:56.041Z,961.50
2023-05-20T00:34:27.302Z,961.50
2023-05-20T00:34:58.125Z,961.50
2023-05-20T00:35:29.223Z,961.50
2023-05-20T00:36:00.066Z,961.50
2023-05-20T00:36:30.925Z,961.50
2023-05-20T00:37:01.994Z,961.50
2023-05-20T00:37:33.153Z,961.50
2023-05-20T00:38:03.988Z,961.50
2023-05-20T00:38:35.289Z,961.39
2023-05-20T00:39:06.233Z,961.39
2023-05-20T00:39:36.996Z,961.29
2023-05-20T00:40:08.402Z,961.29
2023-05-20T00:40:38.894Z,961.60
2023-05-20T00:41:10.199Z,961.60
2023-05-20T00:41:41.205Z,961.60
2023-05-20T00:42:13.136Z,961.60
2023-05-20T00:42:43.257Z,961.39
2023-05-20T00:43:15.331Z,961.39
2023-05-20T00:43:45.451Z,961.39
2023-05-20T00:44:17.272Z,961.39
2023-05-20T00:44:47.309Z,961.29
2023-05-20T00:45:19.557Z,961.29
2023-05-20T00:45:49.175Z,961.60
2023-05-20T00:46:20.049Z,961.60
2023-05-20T00:46:51.034Z,961.29
2023-05-20T00:47:22.040Z,961.29
2023-05-20T00:47:53.021Z,961.29
2023-05-20T00:48:24.320Z,961.29
2023-05-20T00:48:55.196Z,961.60
2023-05-20T00:49:26.339Z,961.60
2023-05-20T00:49:57.425Z,961.29
2023-05-20T00:50:28.406Z,961.29
2023-05-20T00:50:59.015Z,961.39
2023-05-20T00:51:30.340Z,961.39
2023-05-20T00:52:01.221Z,961.39
2023-05-20T00:52:32.182Z,961.39
2023-05-20T00:53:03.406Z,961.39
2023-05-20T00:53:34.392Z,961.29
2023-05-20T00:54:05.535Z,961.29
2023-05-20T00:54:36.248Z,961.29
2023-05-20T00:55:07.678Z,961.29
2023-05-20T00:55:38.322Z,961.39
2023-05-20T00:56:09.678Z,961.39
2023-05-20T00:56:40.086Z,961.29
2023-05-20T00:57:11.072Z,961.29
2023-05-20T00:57:42.053Z,961.29
2023-05-20T00:58:13.166Z,961.29
2023-05-20T00:58:44.425Z,961.29
2023-05-20T00:59:15.674Z,961.29
2023-05-20T00:59:46.416Z,961.29
2023-05-20T01:00:17.968Z,961.29
2023-05-20T01:00:48.454Z,961.50
2023-05-20T01:01:19.090Z,961.50
2023-05-20T01:01:50.203Z,961.29
2023-05-20T01:02:21.108Z,961.29
2023-05-20T01:02:52.518Z,961.39
2023-05-20T01:03:23.355Z,961.39
2023-05-20T01:03:54.407Z,961.39
2023-05-20T01:04:25.158Z,961.39
2023-05-20T01:04:56.106Z,961.19
2023-05-20T01:05:27.734Z,961.19
2023-05-20T01:05:58.035Z,961.29
2023-05-20T01:06:29.025Z,961.29
2023-05-20T01:07:00.286Z,961.29
2023-05-20T01:07:31.212Z,961.29
2023-05-20T01:08:02.155Z,961.29
2023-05-20T01:08:33.133Z,961.29
2023-05-20T01:09:04.132Z,961.29
2023-05-20T01:09:35.187Z,961.19
2023-05-20T01:10:06.413Z,961.19
2023-05-20T01:10:36.972Z,961.29
2023-05-20T01:11:08.226Z,961.29
2023-05-20T01:11:39.278Z,961.29
2023-05-20T01:12:10.125Z,961.29
2023-05-20T01:12:41.313Z,961.09
2023-05-20T01:13:12.065Z,961.09
2023-05-20T01:13:45.107Z,961.50
2023-05-20T01:14:14.134Z,961.50
2023-05-20T01:14:46.428Z,961.19
2023-05-20T01:15:16.865Z,961.19
2023-05-20T01:15:48.608Z,961.29
2023-05-20T01:16:18.275Z,961.29
2023-05-20T01:16:49.093Z,961.19
2023-05-20T01:17:20.632Z,961.19
2023-05-20T01:17:51.495Z,961.29
2023-05-20T01:18:22.088Z,961.29
2023-05-20T01:18:53.061Z,961.09
2023-05-20T01:19:24.551Z,961.09
2023-05-20T01:19:55.558Z,961.29
2023-05-20T01:20:26.427Z,961.29
2023-05-20T01:20:57.249Z,961.19
2023-05-20T01:21:28.172Z,961.19
2023-05-20T01:21:59.156Z,961.19
2023-05-20T01:22:30.145Z,961.19
2023-05-20T01:23:01.508Z,961.29
2023-05-20T01:23:32.187Z,961.29
2023-05-20T01:24:03.103Z,961.29
2023-05-20T01:24:34.350Z,961.19
2023-05-20T01:25:05.457Z,961.19
2023-05-20T01:25:36.296Z,961.29
2023-05-20T01:26:07.273Z,961.29
2023-05-20T01:26:38.158Z,961.29
2023-05-20T01:27:09.163Z,961.29
2023-05-20T01:27:40.186Z,961.19
2023-05-20T01:28:11.394Z,961.19
2023-05-20T01:28:42.402Z,961.29
2023-05-20T01:29:13.382Z,961.29
2023-05-20T01:29:44.500Z,961.19
2023-05-20T01:30:15.727Z,961.19
2023-05-20T01:30:46.403Z,961.29
2023-05-20T01:31:17.308Z,961.29
2023-05-20T01:31:48.614Z,961.29
2023-05-20T01:32:19.253Z,961.29
2023-05-20T01:32:50.353Z,961.09
2023-05-20T01:33:21.281Z,961.09
2023-05-20T01:33:52.409Z,961.09
2023-05-20T01:34:23.386Z,961.09
2023-05-20T01:34:54.374Z,961.09
2023-05-20T01:35:25.943Z,961.09
2023-05-20T01:35:56.216Z,961.29
2023-05-20T01:36:27.293Z,961.29
2023-05-20T01:36:58.590Z,961.39
2023-05-20T01:37:29.341Z,961.39
2023-05-20T01:38:00.311Z,961.09
2023-05-20T01:38:31.342Z,961.09
2023-05-20T01:39:02.485Z,961.09
2023-05-20T01:39:35.005Z,961.09
2023-05-20T01:40:04.784Z,961.29
2023-05-20T01:40:35.539Z,961.29
2023-05-20T01:41:06.897Z,961.29
2023-05-20T01:41:37.551Z,961.39
2023-05-20T01:42:08.208Z,961.39
2023-05-20T01:42:39.215Z,961.29
2023-05-20T01:43:10.827Z,961.29
2023-05-20T01:43:41.181Z,961.19
2023-05-20T01:44:12.786Z,961.19
2023-05-20T01:44:43.528Z,961.29
2023-05-20T01:45:16.847Z,961.29
2023-05-20T01:45:45.799Z,961.09
2023-05-20T01:46:17.462Z,961.09
2023-05-20T01:46:47.480Z,961.09
2023-05-20T01:47:19.656Z,961.09
2023-05-20T01:47:49.248Z,961.09
2023-05-20T01:48:20.759Z,961.09
2023-05-20T01:48:51.603Z,961.29
2023-05-20T01:49:22.620Z,961.29
2023-05-20T01:49:53.243Z,961.29
2023-05-20T01:50:24.844Z,961.29
2023-05-20T01:50:55.835Z,961.29
2023-05-20T01:51:26.523Z,961.29
2023-05-20T01:51:57.248Z,961.09
2023-05-20T01:52:28.282Z,961.09
2023-05-20T01:52:59.670Z,961.19
2023-05-20T01:53:30.411Z,961.19
2023-05-20T01:54:01.582Z,960.99
2023-05-20T01:54:32.362Z,960.99
2023-05-20T01:55:03.477Z,960.99
2023-05-20T01:55:34.576Z,960.99
2023-05-20T01:56:05.624Z,960.99
2023-05-20T01:56:36.220Z,960.99
2023-05-20T01:57:07.312Z,960.99
2023-05-20T01:57:38.691Z,961.09
2023-05-20T01:58:09.523Z,961.09
2023-05-20T01:58:40.373Z,960.99
2023-05-20T01:59:11.830Z,960.99
2023-05-20T01:59:42.433Z,960.99
2023-05-20T02:00:14.184Z,960.99
2023-05-20T02:00:44.605Z,961.19
2023-05-20T02:01:15.295Z,961.19
2023-05-20T02:01:46.753Z,961.19
2023-05-20T02:02:17.489Z,961.19
2023-05-20T02:02:48.994Z,961.29
2023-05-20T02:03:19.594Z,961.29
2023-05-20T02:03:50.836Z,961.09
2023-05-20T02:04:21.222Z,961.09
2023-05-20T02:04:52.405Z,961.19
2023-05-20T02:05:24.097Z,961.19
2023-05-20T02:05:54.253Z,960.89
2023-05-20T02:06:25.405Z,960.89
2023-05-20T02:06:56.423Z,961.19
2023-05-20T02:07:27.434Z,961.19
2023-05-20T02:07:58.282Z,961.19
2023-05-20T02:08:30.086Z,961.19
2023-05-20T02:09:00.567Z,961.29
2023-05-20T02:09:31.548Z,961.29
2023-05-20T02:10:02.834Z,961.39
2023-05-20T02:10:33.267Z,961.39
2023-05-20T02:11:04.505Z,961.39
2023-05-20T02:11:35.776Z,961.29
2023-05-20T02:12:06.386Z,961.29
2023-05-20T02:12:37.489Z,961.19
2023-05-20T02:13:08.592Z,961.19
2023-05-20T02:13:39.532Z,961.29
2023-05-20T02:14:10.306Z,961.29
2023-05-20T02:14:41.268Z,961.09
2023-05-20T02:15:14.103Z,961.09
2023-05-20T02:15:43.415Z,961.09
2023-05-20T02:16:14.464Z,961.09
2023-05-20T02:16:46.847Z,961.09
2023-05-20T02:17:16.746Z,961.09
2023-05-20T02:17:48.370Z,961.29
2023-05-20T02:18:17.817Z,961.29
2023-05-20T02:18:50.281Z,961.29
2023-05-20T02:19:20.345Z,961.29
2023-05-20T02:19:50.939Z,961.29
2023-05-20T02:20:22.891Z,961.09
2023-05-20T02:20:53.439Z,961.39
2023-05-20T02:21:24.428Z,961.39
2023-05-20T02:21:55.651Z,961.19
2023-05-20T02:22:26.666Z,961.19
2023-05-20T02:22:57.562Z,961.19
2023-05-20T02:23:28.648Z,961.19
2023-05-20T02:23:59.367Z,961.09
2023-05-20T02:24:30.304Z,961.09
2023-05-20T02:25:01.849Z,961.29
2023-05-20T02:25:33.438Z,961.29
2023-05-20T02:26:03.433Z,961.19
2023-05-20T02:26:34.730Z,961.09
2023-05-20T02:27:05.705Z,961.09
2023-05-20T02:27:36.698Z,960.89
2023-05-20T02:28:07.398Z,960.89
2023-05-20T02:28:38.631Z,960.99
2023-05-20T02:29:09.448Z,960.99
2023-05-20T02:29:40.414Z,960.89
2023-05-20T02:30:12.456Z,960.89
2023-05-20T02:30:42.569Z,960.99
2023-05-20T02:31:13.708Z,960.99
2023-05-20T02:31:44.741Z,961.09
2023-05-20T02:32:15.738Z,961.09
2023-05-20T02:32:46.538Z,960.99
2023-05-20T02:33:17.531Z,960.99
2023-05-20T02:33:48.558Z,960.89
2023-05-20T02:34:19.853Z,960.89
2023-05-20T02:34:50.829Z,961.09
2023-05-20T02:35:22.169Z,961.09
2023-05-20T02:35:52.357Z,960.78
2023-05-20T02:36:23.578Z,960.78
2023-05-20T02:36:54.765Z,960.89
2023-05-20T02:37:25.426Z,960.89
2023-05-20T02:37:56.992Z,961.09
2023-05-20T02:38:27.414Z,961.09
2023-05-20T02:38:58.419Z,961.19
2023-05-20T02:39:29.436Z,961.19
2023-05-20T02:40:00.636Z,960.99
2023-05-20T02:40:31.438Z,960.99
2023-05-20T02:41:02.526Z,961.19
2023-05-20T02:41:33.721Z,961.19
2023-05-20T02:42:04.520Z,961.19
2023-05-20T02:42:35.702Z,961.09
2023-05-20T02:43:06.658Z,961.09
2023-05-20T02:43:37.640Z,960.99
2023-05-20T02:44:08.828Z,960.99
2023-05-20T02:44:39.731Z,960.99
2023-05-20T02:45:11.750Z,960.99
2023-05-20T02:45:41.622Z,961.19
2023-05-20T02:46:12.787Z,961.19
2023-05-20T02:46:43.755Z,961.19
2023-05-20T02:47:14.709Z,961.19
2023-05-20T02:47:45.703Z,961.29
2023-05-20T02:48:18.515Z,961.29
2023-05-20T02:48:47.411Z,960.89
2023-05-20T02:49:20.770Z,960.89
2023-05-20T02:49:49.841Z,961.19
2023-05-20T02:50:21.304Z,961.19
2023-05-20T02:50:51.801Z,961.19
2023-05-20T02:51:22.440Z,961.19
2023-05-20T02:51:53.687Z,961.19
2023-05-20T02:52:25.034Z,961.19
2023-05-20T02:52:55.516Z,960.89
2023-05-20T02:53:26.516Z,960.89
2023-05-20T02:53:57.557Z,961.29
2023-05-20T02:54:28.479Z,961.29
2023-05-20T02:54:59.641Z,961.09
2023-05-20T02:55:31.511Z,961.09
2023-05-20T02:56:01.753Z,961.09
2023-05-20T02:56:32.485Z,961.09
2023-05-20T02:57:03.509Z,960.99
2023-05-20T02:57:35.038Z,960.99
2023-05-20T02:58:05.777Z,960.99
2023-05-20T02:58:37.088Z,961.19
2023-05-20T02:59:07.589Z,961.19
2023-05-20T02:59:38.699Z,960.68
2023-05-20T03:00:10.268Z,960.68
2023-05-20T03:00:40.945Z,961.09
2023-05-20T03:01:11.749Z,961.09
2023-05-20T03:01:42.542Z,961.09
2023-05-20T03:02:13.791Z,961.09
2023-05-20T03:02:45.041Z,960.99
2023-05-20T03:03:15.638Z,960.99
2023-05-20T03:03:46.649Z,960.99
2023-05-20T03:04:17.960Z,960.99
2023-05-20T03:04:48.665Z,960.99
2023-05-20T03:05:20.032Z,960.99
2023-05-20T03:05:50.437Z,960.89
2023-05-20T03:06:21.489Z,960.89
2023-05-20T03:06:52.596Z,960.68
2023-05-20T03:07:23.596Z,960.68
2023-05-20T03:07:54.741Z,961.09
2023-05-20T03:08:25.746Z,961.09
2023-05-20T03:08:56.632Z,960.99
2023-05-20T03:09:27.633Z,960.99
2023-05-20T03:09:58.718Z,961.09
2023-05-20T03:10:30.114Z,961.09
2023-05-20T03:11:00.752Z,960.99
2023-05-20T03:11:31.615Z,960.99
2023-05-20T03:12:02.548Z,960.99
2023-05-20T03:12:33.651Z,960.99
2023-05-20T03:13:04.791Z,960.99
2023-05-20T03:13:35.589Z,961.09
2023-05-20T03:14:06.798Z,961.09
2023-05-20T03:14:37.657Z,961.09
2023-05-20T03:15:09.769Z,961.09
2023-05-20T03:15:39.952Z,961.09
2023-05-20T03:16:10.747Z,961.09
2023-05-20T03:16:41.548Z,961.09
2023-05-20T03:17:12.581Z,961.09
2023-05-20T03:17:43.626Z,960.99
2023-05-20T03:18:15.229Z,960.99
2023-05-20T03:18:45.640Z,961.19
2023-05-20T03:19:16.607Z,961.19
2023-05-20T03:19:49.361Z,960.99
2023-05-20T03:20:18.798Z,960.99
2023-05-20T03:20:51.619Z,961.09
2023-05-20T03:21:20.710Z,961.09
2023-05-20T03:21:51.911Z,961.19
2023-05-20T03:22:22.848Z,961.19
2023-05-20T03:22:53.959Z,961.09
2023-05-20T03:23:25.088Z,961.09
2023-05-20T03:23:55.593Z,961.19
2023-05-20T03:24:26.660Z,961.19
2023-05-20T03:24:57.596Z,961.19
2023-05-20T03:25:29.056Z,961.19
2023-05-20T03:25:59.744Z,961.09
2023-05-20T03:26:30.914Z,961.09
2023-05-20T03:27:01.591Z,960.99
2023-05-20T03:27:32.617Z,960.99
2023-05-20T03:28:04.098Z,961.09
2023-05-20T03:28:35.185Z,960.99
2023-05-20T03:29:05.687Z,960.99
2023-05-20T03:29:36.581Z,960.99
2023-05-20T03:30:08.440Z,960.99
2023-05-20T03:30:38.782Z,961.19
2023-05-20T03:31:09.844Z,961.19
2023-05-20T03:31:40.693Z,961.19
2023-05-20T03:32:11.611Z,961.19
2023-05-20T03:32:42.659Z,960.78
2023-05-20T03:33:14.019Z,960.78
2023-05-20T03:33:44.580Z,960.89
2023-05-20T03:34:15.797Z,960.89
2023-05-20T03:34:46.821Z,960.99
2023-05-20T03:35:18.134Z,960.99
2023-05-20T03:35:48.604Z,960.99
2023-05-20T03:36:20.170Z,960.99
2023-05-20T03:36:50.663Z,960.78
2023-05-20T03:37:21.663Z,960.78
2023-05-20T03:37:52.736Z,960.99
2023-05-20T03:38:23.703Z,960.99
2023-05-20T03:38:54.544Z,960.89
2023-05-20T03:39:25.653Z,960.89
2023-05-20T03:39:56.692Z,961.19
2023-05-20T03:40:28.053Z,961.19
2023-05-20T03:40:58.926Z,961.19
2023-05-20T03:41:30.128Z,961.19
2023-05-20T03:42:00.960Z,960.78
2023-05-20T03:42:32.124Z,960.78
2023-05-20T03:43:02.558Z,961.19
2023-05-20T03:43:33.640Z,961.19
2023-05-20T03:44:05.183Z,960.99
2023-05-20T03:44:35.924Z,961.09
2023-05-20T03:45:07.290Z,961.09
2023-05-20T03:45:37.805Z,961.19
2023-05-20T03:46:09.061Z,961.19
2023-05-20T03:46:39.809Z,961.09
2023-05-20T03:47:10.557Z,961.09
2023-05-20T03:47:42.140Z,961.19
2023-05-20T03:48:12.750Z,961.19
2023-05-20T03:48:43.684Z,960.89
2023-05-20T03:49:14.778Z,960.89
2023-05-20T03:49:45.708Z,960.99
2023-05-20T03:50:17.115Z,960.99
2023-05-20T03:50:47.614Z,961.09
2023-05-20T03:51:19.979Z,961.09
2023-05-20T03:51:49.692Z,961.19
2023-05-20T03:52:22.636Z,961.19
2023-05-20T03:52:52.025Z,960.89
2023-05-20T03:53:23.109Z,960.89
2023-05-20T03:53:53.745Z,960.89
2023-05-20T03:54:24.764Z,960.89
2023-05-20T03:54:55.738Z,960.89
2023-05-20T03:55:27.143Z,960.89
2023-05-20T03:55:57.684Z,960.99
2023-05-20T03:56:28.745Z,960.99
2023-05-20T03:56:59.988Z,961.09
2023-05-20T03:57:30.858Z,961.09
2023-05-20T03:58:01.847Z,960.99
2023-05-20T03:58:32.901Z,960.99
2023-05-20T03:59:03.771Z,960.89
2023-05-20T03:59:34.760Z,961.09
2023-05-20T04:00:06.409Z,961.09
2023-05-20T04:00:36.725Z,960.99
2023-05-20T04:01:07.677Z,960.99
2023-05-20T04:01:38.747Z,961.19
2023-05-20T04:02:10.077Z,961.19
2023-05-20T04:02:40.774Z,960.99
2023-05-20T04:03:12.043Z,960.99
2023-05-20T04:03:42.757Z,961.09
2023-05-20T04:04:13.846Z,961.09
2023-05-20T04:04:44.839Z,960.89
2023-05-20T04:05:16.488Z,960.89
2023-05-20T04:05:46.658Z,960.78
2023-05-20T04:06:17.686Z,960.78
2023-05-20T04:06:48.677Z,960.99
2023-05-20T04:07:19.932Z,960.99
2023-05-20T04:07:50.681Z,960.89
2023-05-20T04:08:21.960Z,960.89
2023-05-20T04:08:53.023Z,960.78
2023-05-20T04:09:23.973Z,960.78
2023-05-20T04:09:54.999Z,960.99
2023-05-20T04:10:26.494Z,960.99
2023-05-20T04:10:57.278Z,960.78
2023-05-20T04:11:27.717Z,960.78
2023-05-20T04:11:58.665Z,960.89
2023-05-20T04:12:29.734Z,960.89
2023-05-20T04:13:00.775Z,960.78
2023-05-20T04:13:31.898Z,960.78
2023-05-20T04:14:02.774Z,960.99
2023-05-20T04:14:34.553Z,960.99
2023-05-20T04:15:05.254Z,961.09
2023-05-20T04:15:35.903Z,960.99
2023-05-20T04:16:06.720Z,960.99
2023-05-20T04:16:37.852Z,960.78
2023-05-20T04:17:08.821Z,960.78
2023-05-20T04:17:40.129Z,960.68
2023-05-20T04:18:11.006Z,960.68
2023-05-20T04:18:42.305Z,960.89
2023-05-20T04:19:13.103Z,960.89
2023-05-20T04:19:43.794Z,960.78
2023-05-20T04:20:15.018Z,960.78
2023-05-20T04:20:45.647Z,960.78
2023-05-20T04:21:16.860Z,960.78
2023-05-20T04:21:47.799Z,960.89
2023-05-20T04:22:18.939Z,960.89
2023-05-20T04:22:52.100Z,960.78
2023-05-20T04:23:20.934Z,960.78
2023-05-20T04:23:53.663Z,960.89
2023-05-20T04:24:22.822Z,960.89
2023-05-20T04:24:54.972Z,960.89
2023-05-20T04:25:25.342Z,960.89
2023-05-20T04:25:55.787Z,961.09
2023-05-20T04:26:26.790Z,961.09
2023-05-20T04:26:58.059Z,960.99
2023-05-20T04:27:28.809Z,960.99
2023-05-20T04:28:00.124Z,960.99
2023-05-20T04:28:31.047Z,960.99
2023-05-20T04:29:01.845Z,960.89
2023-05-20T04:29:32.819Z,960.89
2023-05-20T04:30:04.822Z,960.99
2023-05-20T04:30:34.884Z,960.99
2023-05-20T04:31:05.925Z,960.99
2023-05-20T04:31:36.892Z,960.89
2023-05-20T04:32:07.872Z,960.89
2023-05-20T04:32:38.906Z,960.99
2023-05-20T04:33:10.202Z,960.99
2023-05-20T04:33:40.863Z,961.09
2023-05-20T04:34:12.169Z,961.09
2023-05-20T04:34:42.845Z,960.89
2023-05-20T04:35:14.196Z,960.89
2023-05-20T04:35:45.360Z,960.89
2023-05-20T04:36:15.870Z,960.89
2023-05-20T04:36:46.828Z,960.78
2023-05-20T04:37:17.964Z,960.78
2023-05-20T04:37:49.263Z,960.99
2023-05-20T04:38:19.944Z,960.99
2023-05-20T04:38:50.996Z,960.68
2023-05-20T04:39:23.104Z,960.68
2023-05-20T04:39:53.090Z,960.99
2023-05-20T04:40:24.595Z,960.99
2023-05-20T04:40:54.853Z,961.09
2023-05-20T04:41:26.168Z,961.09
2023-05-20T04:41:56.855Z,960.99
2023-05-20T04:42:28.133Z,960.99
2023-05-20T04:42:58.853Z,960.78
2023-05-20T04:43:30.423Z,960.78
2023-05-20T04:44:01.283Z,960.68
2023-05-20T04:44:31.816Z,960.68
2023-05-20T04:45:03.298Z,960.68
2023-05-20T04:45:34.237Z,960.68
2023-05-20T04:46:04.892Z,960.99
2023-05-20T04:46:36.118Z,960.78
2023-05-20T04:47:07.228Z,960.78
2023-05-20T04:47:38.076Z,960.89
2023-05-20T04:48:09.127Z,960.89
2023-05-20T04:48:40.168Z,960.78
2023-05-20T04:49:11.232Z,960.78
2023-05-20T04:49:42.175Z,960.99
2023-05-20T04:50:13.181Z,960.99
2023-05-20T04:50:44.458Z,960.89
2023-05-20T04:51:14.854Z,960.89
2023-05-20T04:51:45.905Z,960.89
2023-05-20T04:52:17.091Z,960.89
2023-05-20T04:52:48.153Z,960.78
2023-05-20T04:53:18.934Z,960.78
2023-05-20T04:53:49.874Z,960.78
2023-05-20T04:54:25.897Z,960.78
2023-05-20T04:54:51.972Z,960.68
2023-05-20T04:55:23.580Z,960.68
2023-05-20T04:55:54.012Z,960.62
2023-05-20T04:56:26.092Z,960.62
2023-05-20T04:56:56.030Z,960.78
2023-05-20T04:57:27.050Z,960.78
2023-05-20T04:57:57.984Z,960.68
2023-05-20T04:58:28.902Z,960.68
2023-05-20T04:59:00.576Z,960.78
2023-05-20T04:59:30.950Z,960.78
2023-05-20T05:00:02.689Z,960.68
2023-05-20T05:00:33.010Z,960.68
2023-05-20T05:01:03.998Z,960.68
2023-05-20T05:01:35.091Z,960.78
2023-05-20T05:02:05.892Z,960.78
2023-05-20T05:02:37.124Z,960.89
2023-05-20T05:03:08.219Z,960.89
2023-05-20T05:03:39.281Z,960.89
2023-05-20T05:04:10.237Z,960.89
2023-05-20T05:04:41.322Z,960.89
2023-05-20T05:05:12.230Z,960.89
2023-05-20T05:05:42.954Z,960.78
2023-05-20T05:06:13.888Z,960.78
2023-05-20T05:06:45.237Z,960.89
2023-05-20T05:07:16.255Z,960.89
2023-05-20T05:07:47.563Z,960.78
2023-05-20T05:08:18.384Z,960.78
2023-05-20T05:08:48.932Z,960.99
2023-05-20T05:09:19.982Z,960.99
2023-05-20T05:09:51.115Z,960.89
2023-05-20T05:10:22.368Z,960.89
2023-05-20T05:10:53.177Z,960.68
2023-05-20T05:11:24.267Z,960.68
2023-05-20T05:11:55.013Z,961.09
2023-05-20T05:12:26.414Z,961.09
2023-05-20T05:12:57.584Z,960.78
2023-05-20T05:13:27.981Z,960.78
2023-05-20T05:13:59.189Z,960.89
2023-05-20T05:14:30.330Z,960.89
2023-05-20T05:15:01.448Z,960.78
2023-05-20T05:15:32.372Z,960.78
2023-05-20T05:16:02.994Z,960.89
2023-05-20T05:16:34.437Z,960.89
2023-05-20T05:17:05.341Z,960.99
2023-05-20T05:17:36.406Z,960.78
2023-05-20T05:18:07.392Z,960.78
2023-05-20T05:18:38.095Z,960.89
2023-05-20T05:19:09.366Z,960.89
2023-05-20T05:19:40.031Z,960.89
2023-05-20T05:20:11.920Z,960.89
2023-05-20T05:20:42.162Z,960.78
2023-05-20T05:21:13.372Z,960.78
2023-05-20T05:21:44.363Z,960.89
2023-05-20T05:22:15.399Z,960.89
2023-05-20T05:22:46.111Z,960.68
2023-05-20T05:23:17.226Z,960.68
2023-05-20T05:23:48.107Z,960.89
2023-05-20T05:24:19.351Z,960.89
2023-05-20T05:24:50.070Z,961.09
2023-05-20T05:25:21.799Z,961.09
2023-05-20T05:25:54.031Z,960.89
2023-05-20T05:26:22.974Z,960.89
2023-05-20T05:26:56.447Z,960.68
2023-05-20T05:27:25.406Z,960.68
2023-05-20T05:27:57.898Z,960.89
2023-05-20T05:28:27.100Z,960.89
2023-05-20T05:28:58.378Z,960.89
2023-05-20T05:29:29.085Z,960.89
2023-05-20T05:30:00.102Z,960.78
2023-05-20T05:30:31.842Z,960.78
2023-05-20T05:31:02.396Z,960.78
2023-05-20T05:31:33.165Z,960.78
2023-05-20T05:32:04.143Z,960.68
2023-05-20T05:32:35.331Z,960.78
2023-05-20T05:33:06.685Z,960.78
2023-05-20T05:33:37.185Z,960.78
2023-05-20T05:34:08.315Z,960.78
2023-05-20T05:34:39.154Z,960.89
2023-05-20T05:35:10.692Z,960.89
2023-05-20T05:35:41.192Z,960.68
2023-05-20T05:36:12.360Z,960.68
2023-05-20T05:36:43.042Z,960.99
2023-05-20T05:37:14.029Z,960.99
2023-05-20T05:37:45.498Z,960.89
2023-05-20T05:38:16.301Z,960.89
2023-05-20T05:38:47.143Z,960.99
2023-05-20T05:39:18.060Z,960.99
2023-05-20T05:39:49.125Z,960.89
2023-05-20T05:40:20.535Z,960.89
2023-05-20T05:40:51.255Z,960.99
2023-05-20T05:41:22.332Z,960.99
2023-05-20T05:41:53.095Z,960.78
2023-05-20T05:42:24.265Z,960.78
2023-05-20T05:42:55.101Z,960.99
2023-05-20T05:43:26.663Z,960.99
2023-05-20T05:43:57.071Z,961.09
2023-05-20T05:44:28.308Z,961.09
2023-05-20T05:44:59.375Z,961.09
2023-05-20T05:45:31.331Z,961.09
2023-05-20T05:46:01.047Z,960.78
2023-05-20T05:46:32.399Z,960.78
2023-05-20T05:47:03.472Z,960.68
2023-05-20T05:47:34.518Z,960.68
2023-05-20T05:48:05.727Z,960.89
2023-05-20T05:48:36.332Z,960.62
2023-05-20T05:49:07.145Z,960.62
2023-05-20T05:49:38.144Z,960.68
2023-05-20T05:50:09.543Z,960.68
2023-05-20T05:50:40.045Z,960.78
2023-05-20T05:51:11.154Z,960.78
2023-05-20T05:51:42.151Z,960.89
2023-05-20T05:52:13.156Z,960.89
2023-05-20T05:52:44.336Z,960.68
2023-05-20T05:53:15.250Z,960.68
2023-05-20T05:53:46.371Z,960.99
2023-05-20T05:54:17.394Z,960.99
2023-05-20T05:54:47.987Z,960.99
2023-05-20T05:55:19.592Z,960.99
2023-05-20T05:55:50.114Z,960.89
2023-05-20T05:56:21.151Z,960.89
2023-05-20T05:56:52.141Z,960.68
2023-05-20T05:57:25.271Z,960.68
2023-05-20T05:57:54.157Z,960.62
2023-05-20T05:58:26.641Z,960.62
2023-05-20T05:58:56.174Z,960.89
2023-05-20T05:59:28.125Z,960.89
2023-05-20T05:59:58.516Z,960.89
2023-05-20T06:00:30.256Z,960.89
2023-05-20T06:01:00.381Z,960.89
2023-05-20T06:01:31.134Z,960.89
2023-05-20T06:02:02.466Z,960.68
2023-05-20T06:02:33.433Z,960.68
2023-05-20T06:03:04.554Z,960.89
2023-05-20T06:03:35.326Z,960.78
2023-05-20T06:04:07.119Z,960.78
2023-05-20T06:04:37.259Z,960.89
2023-05-20T06:05:08.691Z,960.89
2023-05-20T06:05:39.287Z,960.89
2023-05-20T06:06:10.192Z,960.89
2023-05-20T06:06:41.329Z,960.99
2023-05-20T06:07:12.100Z,960.99
2023-05-20T06:07:43.729Z,960.89
2023-05-20T06:08:14.256Z,960.89
2023-05-20T06:08:45.312Z,960.99
2023-05-20T06:09:16.493Z,960.99
2023-05-20T06:09:47.584Z,960.62
2023-05-20T06:10:18.878Z,960.62
2023-05-20T06:10:49.230Z,960.62
2023-05-20T06:11:20.073Z,960.62
2023-05-20T06:11:51.177Z,960.89
2023-05-20T06:12:22.810Z,960.89
2023-05-20T06:12:53.483Z,960.78
2023-05-20T06:13:24.328Z,960.78
2023-05-20T06:13:55.292Z,960.68
2023-05-20T06:14:26.635Z,960.68
2023-05-20T06:14:57.384Z,960.51
2023-05-20T06:15:28.965Z,960.51
2023-05-20T06:15:59.683Z,960.51
2023-05-20T06:16:30.180Z,960.51
2023-05-20T06:17:01.580Z,960.62
2023-05-20T06:17:32.206Z,960.62
2023-05-20T06:18:03.607Z,960.78
2023-05-20T06:18:34.322Z,960.78
2023-05-20T06:19:05.186Z,960.62
2023-05-20T06:19:36.348Z,960.78
2023-05-20T06:20:07.880Z,960.78
2023-05-20T06:20:38.223Z,960.78
2023-05-20T06:21:09.334Z,960.78
2023-05-20T06:21:40.388Z,960.68
2023-05-20T06:22:11.389Z,960.68
2023-05-20T06:22:42.432Z,960.68
2023-05-20T06:23:13.329Z,960.68
2023-05-20T06:23:44.303Z,960.89
2023-05-20T06:24:16.267Z,960.89
2023-05-20T06:24:46.932Z,960.68
2023-05-20T06:25:17.991Z,960.68
2023-05-20T06:25:48.143Z,960.78
2023-05-20T06:26:19.291Z,960.78
2023-05-20T06:26:50.207Z,960.78